Time;durP1;ratioP1;P1;durP2;ratioP2;P2;SDS_P1;SDS_P2;PMS_P1;PMS_P2;Temp;Humidity;BMP_temperature;BMP_pressure;BME280_temperature;BME280_humidity;BME280_pressure;Samples;Min_cycle;Max_cycle;Signal;HPM_P1;HPM_P2
2023/05/07 00:00:10;;;;;;;16.23;10.15;;;;;;;;;;5005769;28;20038;-89
2023/05/07 00:02:39;;;;;;;17.98;11.10;;;;;;;;;;5010167;28;20137;-84
2023/05/07 00:05:05;;;;;;;15.52;11.25;;;;;;;;;;4992014;28;20112;-86
2023/05/07 00:07:31;;;;;;;15.57;11.93;;;;;;;;;;5005987;28;20030;-86
2023/05/07 00:09:57;;;;;;;14.90;11.18;;;;;;;;;;4991175;28;20042;-87
2023/05/07 00:12:23;;;;;;;14.15;11.57;;;;;;;;;;5009230;28;20553;-83
2023/05/07 00:14:49;;;;;;;14.52;11.05;;;;;;;;;;5007876;28;20499;-85
2023/05/07 00:17:15;;;;;;;16.85;10.45;;;;;;;;;;4990192;28;20092;-84
2023/05/07 00:19:41;;;;;;;15.43;11.18;;;;;;;;;;5010061;28;20033;-83
2023/05/07 00:22:07;;;;;;;15.02;10.63;;;;;;;;;;5008291;28;20432;-83
2023/05/07 00:24:34;;;;;;;13.95;10.90;;;;;;;;;;4977539;28;20029;-85
2023/05/07 00:27:00;;;;;;;15.45;12.30;;;;;;;;;;5011267;28;20030;-84
2023/05/07 00:29:26;;;;;;;17.85;12.57;;;;;;;;;;5006932;28;20037;-83
2023/05/07 00:31:54;;;;;;;15.35;11.50;;;;;;;;;;5004195;28;20085;-83
2023/05/07 00:34:20;;;;;;;17.38;10.45;;;;;;;;;;5009384;28;20052;-83
2023/05/07 00:36:46;;;;;;;18.98;10.90;;;;;;;;;;4991956;28;20111;-83
2023/05/07 00:39:12;;;;;;;24.67;12.15;;;;;;;;;;5009028;28;20485;-84
2023/05/07 00:41:38;;;;;;;16.80;10.88;;;;;;;;;;4992038;28;20029;-83
2023/05/07 00:44:04;;;;;;;15.05;11.98;;;;;;;;;;5009559;28;20069;-83
2023/05/07 00:46:31;;;;;;;17.83;12.32;;;;;;;;;;5007314;28;20376;-83
2023/05/07 00:48:57;;;;;;;14.43;11.73;;;;;;;;;;5008978;28;20095;-82
2023/05/07 00:51:24;;;;;;;25.88;12.30;;;;;;;;;;5007874;28;20050;-82
2023/05/07 00:53:50;;;;;;;14.68;11.15;;;;;;;;;;5008518;28;20030;-82
2023/05/07 00:56:17;;;;;;;13.15;10.80;;;;;;;;;;4991186;28;20049;-84
2023/05/07 00:58:43;;;;;;;16.23;11.45;;;;;;;;;;4991982;28;20038;-82
2023/05/07 01:01:09;;;;;;;17.60;11.18;;;;;;;;;;5007094;28;20335;-84
2023/05/07 01:03:35;;;;;;;15.68;11.57;;;;;;;;;;5006557;28;20057;-83
2023/05/07 01:06:02;;;;;;;15.85;11.13;;;;;;;;;;5010786;28;20046;-87
2023/05/07 01:08:29;;;;;;;17.25;12.27;;;;;;;;;;5009206;28;20034;-85
2023/05/07 01:10:56;;;;;;;13.80;12.30;;;;;;;;;;5026233;28;20042;-86
2023/05/07 01:13:23;;;;;;;15.75;11.43;;;;;;;;;;5017944;28;20030;-84
2023/05/07 01:15:49;;;;;;;16.20;11.90;;;;;;;;;;5000676;28;20088;-84
2023/05/07 01:18:15;;;;;;;17.52;11.80;;;;;;;;;;5014374;28;20053;-83
2023/05/07 01:20:41;;;;;;;15.13;11.98;;;;;;;;;;5009418;28;20101;-85
2023/05/07 01:23:07;;;;;;;19.38;13.50;;;;;;;;;;5009629;28;20061;-86
2023/05/07 01:25:33;;;;;;;15.63;11.73;;;;;;;;;;5002589;28;20062;-84
2023/05/07 01:28:01;;;;;;;17.35;13.90;;;;;;;;;;5008055;28;20056;-83
2023/05/07 01:30:27;;;;;;;20.60;12.90;;;;;;;;;;4986239;28;20061;-85
2023/05/07 01:32:58;;;;;;;18.88;13.30;;;;;;;;;;5010075;28;20045;-84
2023/05/07 01:35:27;;;;;;;21.67;13.85;;;;;;;;;;5002962;28;20045;-85
2023/05/07 01:37:54;;;;;;;19.52;14.88;;;;;;;;;;4987742;28;20023;-85
2023/05/07 01:40:21;;;;;;;19.48;14.35;;;;;;;;;;5002115;28;20064;-85
2023/05/07 01:42:48;;;;;;;20.98;15.45;;;;;;;;;;5003236;28;20118;-85
2023/05/07 01:45:14;;;;;;;19.00;14.73;;;;;;;;;;5006127;28;20479;-88
2023/05/07 01:47:40;;;;;;;20.63;15.85;;;;;;;;;;5007024;28;20026;-85
2023/05/07 01:50:07;;;;;;;24.17;15.82;;;;;;;;;;5004250;28;20040;-83
2023/05/07 01:52:34;;;;;;;21.08;16.20;;;;;;;;;;4989350;28;20116;-85
2023/05/07 01:55:00;;;;;;;22.17;16.48;;;;;;;;;;4988841;28;20052;-85
2023/05/07 01:57:26;;;;;;;25.75;16.65;;;;;;;;;;5008484;28;20040;-82
2023/05/07 01:59:52;;;;;;;23.08;16.25;;;;;;;;;;4990890;28;20038;-83
2023/05/07 02:02:18;;;;;;;23.02;17.30;;;;;;;;;;5007523;28;20172;-83
2023/05/07 02:04:44;;;;;;;28.00;18.50;;;;;;;;;;5007703;28;20089;-85
2023/05/07 02:07:10;;;;;;;23.88;17.27;;;;;;;;;;5006193;28;20561;-86
2023/05/07 02:09:36;;;;;;;23.80;16.13;;;;;;;;;;5008903;28;20114;-85
2023/05/07 02:12:02;;;;;;;26.38;16.50;;;;;;;;;;5006837;28;20103;-86
2023/05/07 02:14:28;;;;;;;25.33;18.35;;;;;;;;;;5005308;28;20483;-83
2023/05/07 02:16:54;;;;;;;24.13;17.05;;;;;;;;;;4988042;28;20061;-84
2023/05/07 02:19:21;;;;;;;23.63;17.30;;;;;;;;;;5007225;28;20026;-83
2023/05/07 02:21:47;;;;;;;22.75;18.77;;;;;;;;;;5004191;28;20120;-84
2023/05/07 02:24:13;;;;;;;23.25;17.92;;;;;;;;;;5009607;28;20036;-85
2023/05/07 02:26:41;;;;;;;22.65;18.08;;;;;;;;;;5005002;28;20022;-83
2023/05/07 02:29:07;;;;;;;22.10;16.55;;;;;;;;;;5006480;28;20387;-84
2023/05/07 02:31:33;;;;;;;27.63;18.50;;;;;;;;;;5006347;28;20140;-84
2023/05/07 02:34:03;;;;;;;24.58;17.98;;;;;;;;;;5007467;28;20030;-85
2023/05/07 02:36:30;;;;;;;25.60;18.02;;;;;;;;;;4999008;28;20038;-84
2023/05/07 02:38:56;;;;;;;27.23;19.13;;;;;;;;;;5006266;28;20538;-83
2023/05/07 02:41:22;;;;;;;33.20;19.77;;;;;;;;;;4989950;28;20037;-85
2023/05/07 02:43:48;;;;;;;25.80;20.42;;;;;;;;;;5003844;28;20046;-84
2023/05/07 02:46:14;;;;;;;34.90;20.73;;;;;;;;;;5007544;28;20100;-84
2023/05/07 02:48:40;;;;;;;29.05;19.27;;;;;;;;;;5007166;28;20049;-84
2023/05/07 02:51:06;;;;;;;27.73;19.17;;;;;;;;;;5001086;28;20030;-85
2023/05/07 02:53:32;;;;;;;26.00;19.77;;;;;;;;;;4987994;28;20149;-84
2023/05/07 02:55:58;;;;;;;31.45;20.17;;;;;;;;;;4990358;28;20026;-84
2023/05/07 02:58:24;;;;;;;29.73;20.48;;;;;;;;;;5007712;28;20029;-86
2023/05/07 03:00:50;;;;;;;26.38;18.95;;;;;;;;;;5010987;28;20026;-84
2023/05/07 03:03:16;;;;;;;28.08;20.88;;;;;;;;;;4994571;28;20042;-85
2023/05/07 03:05:43;;;;;;;29.20;19.90;;;;;;;;;;5009093;28;20528;-84
2023/05/07 03:08:09;;;;;;;26.40;19.48;;;;;;;;;;5010925;28;20034;-90
2023/05/07 03:10:36;;;;;;;28.27;21.08;;;;;;;;;;4993231;28;20111;-89
2023/05/07 03:13:02;;;;;;;27.55;20.60;;;;;;;;;;5010463;28;20022;-87
2023/05/07 03:15:28;;;;;;;28.60;20.88;;;;;;;;;;4994110;28;20022;-84
2023/05/07 03:17:54;;;;;;;28.20;20.98;;;;;;;;;;5009761;28;20048;-85
2023/05/07 03:20:20;;;;;;;27.08;21.35;;;;;;;;;;5008403;28;20046;-84
2023/05/07 03:22:46;;;;;;;26.90;20.17;;;;;;;;;;5011181;28;20033;-86
2023/05/07 03:25:13;;;;;;;30.48;21.38;;;;;;;;;;4991461;28;20034;-83
2023/05/07 03:27:41;;;;;;;29.60;20.83;;;;;;;;;;4991741;28;20037;-83
2023/05/07 03:30:08;;;;;;;30.48;22.00;;;;;;;;;;5010386;28;20046;-86
2023/05/07 03:32:35;;;;;;;32.13;23.27;;;;;;;;;;5009516;28;20592;-83
2023/05/07 03:35:01;;;;;;;31.27;22.88;;;;;;;;;;5010357;28;20109;-83
2023/05/07 03:37:27;;;;;;;33.40;23.60;;;;;;;;;;5010603;28;20046;-83
2023/05/07 03:39:53;;;;;;;29.98;23.58;;;;;;;;;;5005910;28;20464;-83
2023/05/07 03:42:19;;;;;;;29.65;23.05;;;;;;;;;;5009263;28;20030;-84
2023/05/07 03:44:45;;;;;;;34.03;25.48;;;;;;;;;;5010645;28;20451;-83
2023/05/07 03:47:13;;;;;;;35.25;23.08;;;;;;;;;;5010368;28;20049;-85
2023/05/07 03:49:39;;;;;;;32.92;24.13;;;;;;;;;;5009150;28;20519;-82
2023/05/07 03:52:05;;;;;;;34.00;23.23;;;;;;;;;;5011303;28;20030;-84
2023/05/07 03:54:31;;;;;;;33.03;24.98;;;;;;;;;;5009957;28;20040;-85
2023/05/07 03:56:57;;;;;;;38.83;26.23;;;;;;;;;;5012722;28;20034;-86
2023/05/07 03:59:23;;;;;;;48.13;27.20;;;;;;;;;;5010618;28;20053;-86
2023/05/07 04:01:49;;;;;;;38.67;26.95;;;;;;;;;;5009094;28;20034;-82
2023/05/07 04:04:16;;;;;;;33.88;25.95;;;;;;;;;;5011916;28;20290;-87
2023/05/07 04:06:42;;;;;;;33.90;26.25;;;;;;;;;;5007146;28;20161;-88
2023/05/07 04:09:08;;;;;;;38.78;25.52;;;;;;;;;;5011784;28;20105;-91
2023/05/07 04:11:35;;;;;;;37.22;24.88;;;;;;;;;;5008646;28;20398;-87
2023/05/07 04:14:02;;;;;;;37.15;27.00;;;;;;;;;;5013434;28;20026;-85
2023/05/07 04:16:28;;;;;;;37.63;26.90;;;;;;;;;;5011195;28;20038;-85
2023/05/07 04:18:54;;;;;;;38.47;26.55;;;;;;;;;;5011646;28;20038;-83
2023/05/07 04:21:20;;;;;;;39.45;27.65;;;;;;;;;;5008400;28;20034;-85
2023/05/07 04:23:47;;;;;;;41.17;28.27;;;;;;;;;;5006074;28;20537;-84
2023/05/07 04:26:13;;;;;;;37.67;25.75;;;;;;;;;;5001719;28;20022;-77
2023/05/07 04:28:40;;;;;;;38.08;26.10;;;;;;;;;;4980402;28;20038;-85
2023/05/07 04:31:06;;;;;;;40.70;28.65;;;;;;;;;;4995309;28;20042;-86
2023/05/07 04:33:32;;;;;;;43.08;29.13;;;;;;;;;;4993681;28;20049;-86
2023/05/07 04:36:02;;;;;;;34.65;25.88;;;;;;;;;;5004383;28;20013;-83
2023/05/07 04:38:29;;;;;;;47.90;31.92;;;;;;;;;;4985100;28;20145;-84
2023/05/07 04:40:56;;;;;;;47.70;30.45;;;;;;;;;;4995410;28;21727;-83
2023/05/07 04:43:22;;;;;;;43.90;29.67;;;;;;;;;;5008024;28;20088;-86
2023/05/07 04:45:50;;;;;;;43.13;29.65;;;;;;;;;;5017210;28;20108;-84
2023/05/07 04:48:18;;;;;;;47.50;31.70;;;;;;;;;;5005730;28;20044;-88
2023/05/07 04:50:45;;;;;;;46.42;30.88;;;;;;;;;;5004002;28;20041;-86
2023/05/07 04:53:11;;;;;;;49.08;30.02;;;;;;;;;;5010474;28;20041;-86
2023/05/07 04:55:37;;;;;;;40.95;29.20;;;;;;;;;;5006139;28;20021;-85
2023/05/07 04:58:04;;;;;;;47.70;31.15;;;;;;;;;;5009300;28;20483;-86
2023/05/07 05:00:30;;;;;;;44.88;31.80;;;;;;;;;;5005766;28;20038;-83
2023/05/07 05:02:56;;;;;;;46.63;29.50;;;;;;;;;;5004686;28;20141;-85
2023/05/07 05:05:22;;;;;;;46.13;29.42;;;;;;;;;;5010049;28;20041;-87
2023/05/07 05:07:48;;;;;;;45.92;30.77;;;;;;;;;;5001302;28;20026;-83
2023/05/07 05:10:16;;;;;;;47.38;30.08;;;;;;;;;;5008912;28;20491;-83
2023/05/07 05:12:42;;;;;;;41.17;28.80;;;;;;;;;;5005269;28;20125;-82
2023/05/07 05:15:08;;;;;;;47.55;30.17;;;;;;;;;;5007419;28;20057;-82
2023/05/07 05:17:35;;;;;;;47.10;30.15;;;;;;;;;;5005702;28;20088;-82
2023/05/07 05:20:01;;;;;;;43.63;29.25;;;;;;;;;;5008431;28;20129;-82
2023/05/07 05:22:29;;;;;;;46.30;30.08;;;;;;;;;;5003637;28;20053;-78
2023/05/07 05:24:55;;;;;;;44.33;29.90;;;;;;;;;;5007001;28;20663;-86
2023/05/07 05:27:21;;;;;;;44.53;31.25;;;;;;;;;;5003666;28;20438;-82
2023/05/07 05:29:47;;;;;;;39.47;27.92;;;;;;;;;;5001030;28;20038;-81
2023/05/07 05:32:13;;;;;;;42.15;27.50;;;;;;;;;;5002927;28;20136;-83
2023/05/07 05:34:40;;;;;;;42.85;28.92;;;;;;;;;;5006120;28;20044;-82
2023/05/07 05:37:06;;;;;;;46.47;30.33;;;;;;;;;;5006055;28;20046;-83
2023/05/07 05:39:32;;;;;;;42.35;29.70;;;;;;;;;;5001731;28;20496;-82
2023/05/07 05:41:58;;;;;;;42.50;27.40;;;;;;;;;;5005722;28;20049;-82
2023/05/07 05:44:25;;;;;;;39.67;28.65;;;;;;;;;;5003884;28;20050;-81
2023/05/07 05:46:51;;;;;;;43.22;28.80;;;;;;;;;;5000735;28;20026;-81
2023/05/07 05:49:17;;;;;;;38.88;26.77;;;;;;;;;;5003012;28;23472;-82
2023/05/07 05:51:43;;;;;;;35.33;24.98;;;;;;;;;;5002980;28;20046;-82
2023/05/07 05:54:09;;;;;;;33.95;25.80;;;;;;;;;;5002878;28;20321;-82
2023/05/07 05:56:35;;;;;;;34.60;24.92;;;;;;;;;;5005317;28;20495;-83
2023/05/07 05:59:01;;;;;;;37.28;27.55;;;;;;;;;;5004659;28;20030;-85
2023/05/07 06:01:27;;;;;;;36.72;25.60;;;;;;;;;;5002708;28;20053;-82
2023/05/07 06:03:53;;;;;;;35.45;26.00;;;;;;;;;;5002832;28;20511;-81
2023/05/07 06:06:19;;;;;;;37.25;26.08;;;;;;;;;;4970616;28;20038;-83
2023/05/07 06:08:45;;;;;;;33.72;24.40;;;;;;;;;;5000938;28;20446;-82
2023/05/07 06:11:11;;;;;;;34.55;25.67;;;;;;;;;;5007798;28;20034;-82
2023/05/07 06:13:37;;;;;;;34.10;25.38;;;;;;;;;;5007256;28;20083;-82
2023/05/07 06:16:03;;;;;;;33.25;25.13;;;;;;;;;;5006367;28;20399;-82
2023/05/07 06:18:30;;;;;;;32.45;24.00;;;;;;;;;;5006048;28;20042;-84
2023/05/07 06:20:55;;;;;;;35.42;23.85;;;;;;;;;;5006933;28;20109;-80
2023/05/07 06:23:21;;;;;;;30.17;21.73;;;;;;;;;;4989756;28;20157;-80
2023/05/07 06:25:51;;;;;;;30.15;22.73;;;;;;;;;;4991660;28;20056;-81
2023/05/07 06:28:17;;;;;;;29.98;22.50;;;;;;;;;;5011981;28;20030;-83
2023/05/07 06:30:43;;;;;;;30.08;22.48;;;;;;;;;;4999722;28;20026;-82
2023/05/07 06:33:09;;;;;;;32.90;23.33;;;;;;;;;;5013632;28;20064;-82
2023/05/07 06:35:35;;;;;;;31.13;22.23;;;;;;;;;;4999599;28;20066;-81
2023/05/07 06:38:01;;;;;;;27.33;21.60;;;;;;;;;;5003404;28;20017;-81
2023/05/07 06:40:27;;;;;;;30.65;20.48;;;;;;;;;;5009775;28;20048;-81
2023/05/07 06:42:53;;;;;;;23.27;19.38;;;;;;;;;;5009329;28;20045;-80
2023/05/07 06:45:20;;;;;;;24.88;19.80;;;;;;;;;;5003084;28;20372;-82
2023/05/07 06:47:46;;;;;;;31.42;21.70;;;;;;;;;;4987605;28;20105;-82
2023/05/07 06:50:12;;;;;;;25.63;20.23;;;;;;;;;;5009499;28;20093;-82
2023/05/07 06:52:38;;;;;;;26.42;19.92;;;;;;;;;;5002322;28;20464;-81
2023/05/07 06:55:04;;;;;;;24.02;19.63;;;;;;;;;;5007203;28;20351;-82
2023/05/07 06:57:30;;;;;;;26.90;18.50;;;;;;;;;;4990876;28;20446;-81
2023/05/07 06:59:56;;;;;;;24.98;19.27;;;;;;;;;;5009652;28;20034;-81
2023/05/07 07:02:23;;;;;;;25.73;20.67;;;;;;;;;;5005781;28;20046;-83
2023/05/07 07:04:49;;;;;;;23.27;18.50;;;;;;;;;;5006107;28;20022;-82
2023/05/07 07:07:15;;;;;;;21.10;17.83;;;;;;;;;;5005576;28;20045;-82
2023/05/07 07:09:41;;;;;;;22.92;18.25;;;;;;;;;;4980722;28;20034;-84
2023/05/07 07:12:07;;;;;;;25.17;18.27;;;;;;;;;;4985172;28;20052;-85
2023/05/07 07:14:33;;;;;;;21.15;16.85;;;;;;;;;;4995605;28;20034;-82
2023/05/07 07:16:59;;;;;;;24.00;18.60;;;;;;;;;;4996700;28;20041;-78
2023/05/07 07:19:25;;;;;;;20.58;17.70;;;;;;;;;;4999108;28;20057;-79
2023/05/07 07:21:51;;;;;;;21.63;17.10;;;;;;;;;;4994258;28;20225;-81
2023/05/07 07:24:20;;;;;;;22.65;17.42;;;;;;;;;;4995960;28;20030;-83
2023/05/07 07:26:47;;;;;;;22.55;17.52;;;;;;;;;;4998502;28;20054;-81
2023/05/07 07:29:13;;;;;;;24.00;17.60;;;;;;;;;;5005260;28;20033;-79
2023/05/07 07:31:39;;;;;;;22.58;17.42;;;;;;;;;;4983846;28;20493;-81
2023/05/07 07:34:05;;;;;;;22.08;18.15;;;;;;;;;;5003393;28;20030;-82
2023/05/07 07:36:31;;;;;;;23.75;17.85;;;;;;;;;;4981554;28;20578;-79
2023/05/07 07:38:57;;;;;;;22.52;17.33;;;;;;;;;;4978796;28;20085;-86
2023/05/07 07:41:23;;;;;;;23.27;17.60;;;;;;;;;;4982774;28;20048;-82
2023/05/07 07:43:49;;;;;;;26.75;19.70;;;;;;;;;;4995530;28;20058;-80
2023/05/07 07:46:15;;;;;;;27.23;21.00;;;;;;;;;;5008720;28;20117;-82
2023/05/07 07:48:41;;;;;;;25.33;19.33;;;;;;;;;;5010295;28;20519;-83
2023/05/07 07:51:07;;;;;;;22.75;17.48;;;;;;;;;;5009458;28;20058;-82
2023/05/07 07:53:33;;;;;;;20.83;16.40;;;;;;;;;;5008209;28;20073;-81
2023/05/07 07:56:00;;;;;;;20.52;17.25;;;;;;;;;;5004538;28;20026;-81
2023/05/07 07:58:26;;;;;;;26.63;17.67;;;;;;;;;;5000946;28;20046;-82
2023/05/07 08:00:52;;;;;;;26.63;17.90;;;;;;;;;;5002598;28;20157;-81
2023/05/07 08:03:19;;;;;;;24.45;18.27;;;;;;;;;;5006354;28;20120;-81
2023/05/07 08:05:45;;;;;;;21.15;17.40;;;;;;;;;;5006872;28;20360;-80
2023/05/07 08:08:11;;;;;;;24.27;18.55;;;;;;;;;;5012044;28;20033;-79
2023/05/07 08:10:39;;;;;;;24.70;17.38;;;;;;;;;;5006866;28;20049;-82
2023/05/07 08:13:05;;;;;;;23.60;18.20;;;;;;;;;;5007380;28;20030;-83
2023/05/07 08:15:31;;;;;;;23.60;18.00;;;;;;;;;;4999486;28;20400;-82
2023/05/07 08:17:59;;;;;;;23.70;17.42;;;;;;;;;;5006964;28;20022;-82
2023/05/07 08:20:25;;;;;;;22.23;17.42;;;;;;;;;;5010120;28;20120;-82
2023/05/07 08:22:52;;;;;;;22.75;17.20;;;;;;;;;;5006622;28;20034;-82
2023/05/07 08:25:18;;;;;;;23.45;16.95;;;;;;;;;;5004415;28;20026;-82
2023/05/07 08:27:44;;;;;;;27.27;17.65;;;;;;;;;;5009458;28;20034;-83
2023/05/07 08:30:11;;;;;;;22.38;17.80;;;;;;;;;;5005820;28;20406;-84
2023/05/07 08:32:37;;;;;;;22.05;16.83;;;;;;;;;;5001514;28;20037;-83
2023/05/07 08:35:03;;;;;;;22.80;17.33;;;;;;;;;;4998605;28;20038;-82
2023/05/07 08:37:29;;;;;;;22.55;17.90;;;;;;;;;;4998518;28;20501;-82
2023/05/07 08:39:55;;;;;;;21.73;17.75;;;;;;;;;;4997067;28;20041;-80
2023/05/07 08:42:23;;;;;;;22.73;17.15;;;;;;;;;;4999678;28;20040;-81
2023/05/07 08:44:53;;;;;;;21.88;17.77;;;;;;;;;;4998064;28;20050;-80
2023/05/07 08:47:19;;;;;;;23.65;17.00;;;;;;;;;;5000280;28;20032;-77
2023/05/07 08:49:45;;;;;;;25.42;18.63;;;;;;;;;;5006118;28;20553;-84
2023/05/07 08:52:12;;;;;;;26.15;19.55;;;;;;;;;;5009140;28;20042;-83
2023/05/07 08:54:38;;;;;;;19.83;16.60;;;;;;;;;;5003682;28;20034;-82
2023/05/07 08:57:04;;;;;;;22.52;17.80;;;;;;;;;;5003884;28;20031;-82
2023/05/07 08:59:30;;;;;;;20.88;16.02;;;;;;;;;;4996709;28;20046;-78
2023/05/07 09:01:57;;;;;;;21.50;17.02;;;;;;;;;;4996741;28;20034;-81
2023/05/07 09:04:23;;;;;;;22.67;17.30;;;;;;;;;;4997212;28;20472;-83
2023/05/07 09:06:51;;;;;;;24.13;17.70;;;;;;;;;;5001852;28;20045;-80
2023/05/07 09:09:20;;;;;;;21.45;16.60;;;;;;;;;;5001283;28;20030;-84
2023/05/07 09:11:46;;;;;;;23.85;17.30;;;;;;;;;;4998867;28;20046;-81
2023/05/07 09:14:13;;;;;;;23.55;18.02;;;;;;;;;;5005359;28;20056;-85
2023/05/07 09:16:39;;;;;;;21.52;17.67;;;;;;;;;;4985163;28;20062;-79
2023/05/07 09:19:05;;;;;;;22.50;17.67;;;;;;;;;;5000368;28;20437;-82
2023/05/07 09:21:31;;;;;;;20.27;16.63;;;;;;;;;;4991714;28;20111;-81
2023/05/07 09:23:57;;;;;;;24.95;18.38;;;;;;;;;;4993512;28;20072;-82
2023/05/07 09:26:23;;;;;;;20.20;17.52;;;;;;;;;;5002622;28;20026;-81
2023/05/07 09:28:50;;;;;;;19.00;14.40;;;;;;;;;;5000991;28;20049;-80
2023/05/07 09:31:16;;;;;;;30.00;21.63;;;;;;;;;;4987488;28;20514;-87
2023/05/07 09:33:42;;;;;;;25.70;18.67;;;;;;;;;;4986534;28;20036;-85
2023/05/07 09:36:09;;;;;;;19.65;16.65;;;;;;;;;;5003491;28;20059;-81
2023/05/07 09:38:35;;;;;;;24.52;18.67;;;;;;;;;;5002988;28;20065;-81
2023/05/07 09:41:04;;;;;;;22.55;17.15;;;;;;;;;;4988210;28;20025;-81
2023/05/07 09:43:34;;;;;;;22.45;17.52;;;;;;;;;;5006299;28;20049;-81
2023/05/07 09:46:03;;;;;;;21.15;17.13;;;;;;;;;;4994297;28;20034;-81
2023/05/07 09:48:30;;;;;;;18.35;15.25;;;;;;;;;;4993685;28;20022;-81
2023/05/07 09:50:58;;;;;;;21.20;16.88;;;;;;;;;;5006136;28;20109;-81
2023/05/07 09:53:25;;;;;;;20.85;17.48;;;;;;;;;;5006694;28;20037;-81
2023/05/07 09:55:52;;;;;;;21.83;16.73;;;;;;;;;;5009502;28;20415;-81
2023/05/07 09:58:19;;;;;;;19.85;16.70;;;;;;;;;;5008647;28;20029;-81
2023/05/07 10:00:46;;;;;;;23.55;17.23;;;;;;;;;;4990974;28;20026;-81
2023/05/07 10:03:13;;;;;;;22.95;17.58;;;;;;;;;;5008343;28;20113;-81
2023/05/07 10:05:40;;;;;;;22.35;18.42;;;;;;;;;;5004838;28;20025;-81
2023/05/07 10:08:06;;;;;;;20.85;16.80;;;;;;;;;;5009417;28;20376;-82
2023/05/07 10:10:34;;;;;;;20.30;16.90;;;;;;;;;;5009931;28;20052;-81
2023/05/07 10:13:00;;;;;;;22.38;17.05;;;;;;;;;;5007233;28;20030;-81
2023/05/07 10:15:27;;;;;;;20.50;17.13;;;;;;;;;;5006009;28;20032;-81
2023/05/07 10:17:53;;;;;;;21.33;17.13;;;;;;;;;;4991844;28;20233;-81
2023/05/07 10:20:20;;;;;;;20.98;16.92;;;;;;;;;;5008442;28;20138;-76
2023/05/07 10:22:46;;;;;;;23.02;17.52;;;;;;;;;;4997133;28;20026;-73
2023/05/07 10:25:21;;;;;;;22.02;17.27;;;;;;;;;;4988538;28;20112;-77
2023/05/07 10:27:48;;;;;;;23.50;16.73;;;;;;;;;;4999587;28;20044;-76
2023/05/07 10:30:26;;;;;;;20.80;16.67;;;;;;;;;;5000229;28;20042;-81
2023/05/07 10:33:05;;;;;;;20.00;17.27;;;;;;;;;;4994125;28;20395;-83
2023/05/07 10:35:32;;;;;;;19.70;15.90;;;;;;;;;;5009960;28;20030;-81
2023/05/07 10:37:58;;;;;;;18.70;15.55;;;;;;;;;;4998620;28;20022;-80
2023/05/07 10:40:25;;;;;;;19.25;15.05;;;;;;;;;;5001160;28;20030;-82
2023/05/07 10:42:55;;;;;;;20.23;13.98;;;;;;;;;;5002976;28;20133;-81
2023/05/07 10:45:21;;;;;;;18.30;16.27;;;;;;;;;;5000670;28;20112;-81
2023/05/07 10:48:06;;;;;;;20.20;16.45;;;;;;;;;;4997860;28;20387;-82
2023/05/07 10:50:32;;;;;;;21.33;16.40;;;;;;;;;;5003873;28;20165;-81
2023/05/07 10:53:17;;;;;;;18.23;15.18;;;;;;;;;;5002077;28;20125;-82
2023/05/07 10:56:03;;;;;;;19.15;14.85;;;;;;;;;;5000319;28;20173;-85
2023/05/07 10:58:29;;;;;;;22.30;18.67;;;;;;;;;;4997195;28;20049;-82
2023/05/07 11:00:59;;;;;;;20.77;17.42;;;;;;;;;;5002570;28;20390;-82
2023/05/07 11:03:26;;;;;;;19.75;15.40;;;;;;;;;;5000923;28;20021;-87
2023/05/07 11:06:11;;;;;;;23.55;15.23;;;;;;;;;;4986477;28;20597;-87
2023/05/07 11:08:53;;;;;;;17.75;15.48;;;;;;;;;;5001891;28;20431;-84
2023/05/07 11:11:19;;;;;;;16.42;14.63;;;;;;;;;;5002344;28;20038;-83
2023/05/07 11:13:46;;;;;;;15.40;13.55;;;;;;;;;;5003805;28;21844;-83
2023/05/07 11:16:18;;;;;;;16.10;14.32;;;;;;;;;;5000250;28;20053;-83
2023/05/07 11:18:44;;;;;;;;;;;;;;;;;;5002758;28;20492;-83
2023/05/07 11:21:12;;;;;;;19.35;15.80;;;;;;;;;;5008392;28;19932;-84
2023/05/07 11:23:40;;;;;;;14.93;13.15;;;;;;;;;;5011188;28;20526;-82
2023/05/07 11:26:07;;;;;;;16.75;14.50;;;;;;;;;;5013291;28;20034;-83
2023/05/07 11:28:43;;;;;;;17.92;13.18;;;;;;;;;;5010348;28;20097;-82
2023/05/07 11:31:10;;;;;;;14.55;13.05;;;;;;;;;;5004685;28;20139;-82
2023/05/07 11:33:36;;;;;;;19.98;13.57;;;;;;;;;;5007477;28;20038;-83
2023/05/07 11:36:03;;;;;;;14.75;12.93;;;;;;;;;;4994633;28;20029;-85
2023/05/07 11:38:30;;;;;;;15.88;13.63;;;;;;;;;;5011154;28;20033;-83
2023/05/07 11:40:58;;;;;;;15.93;13.90;;;;;;;;;;5012049;28;20033;-84
2023/05/07 11:43:24;;;;;;;15.63;13.82;;;;;;;;;;5002877;28;20049;-85
2023/05/07 11:45:51;;;;;;;16.65;14.00;;;;;;;;;;5011285;28;20109;-84
2023/05/07 11:48:17;;;;;;;15.82;12.98;;;;;;;;;;4994114;28;20046;-84
2023/05/07 11:50:53;;;;;;;15.07;12.27;;;;;;;;;;5010478;28;20041;-84
2023/05/07 11:53:19;;;;;;;17.35;12.60;;;;;;;;;;5009581;28;20030;-85
2023/05/07 11:55:45;;;;;;;14.20;12.52;;;;;;;;;;5011818;28;20052;-85
2023/05/07 11:58:13;;;;;;;14.43;11.27;;;;;;;;;;5012808;28;20061;-86
2023/05/07 12:00:39;;;;;;;14.02;12.35;;;;;;;;;;5003526;28;20033;-87
2023/05/07 12:03:05;;;;;;;13.23;11.15;;;;;;;;;;5010203;28;20030;-86
2023/05/07 12:05:31;;;;;;;12.27;10.70;;;;;;;;;;5010772;28;20108;-86
2023/05/07 12:07:58;;;;;;;13.60;10.85;;;;;;;;;;5011279;28;20076;-87
2023/05/07 12:10:24;;;;;;;12.30;10.90;;;;;;;;;;4993961;28;20082;-85
2023/05/07 12:12:50;;;;;;;13.73;11.98;;;;;;;;;;5011756;28;20045;-82
2023/05/07 12:15:17;;;;;;;14.15;12.20;;;;;;;;;;5010013;28;20046;-85
2023/05/07 12:17:43;;;;;;;14.63;11.50;;;;;;;;;;4994980;28;20034;-85
2023/05/07 12:20:10;;;;;;;11.13;9.95;;;;;;;;;;5008273;28;20491;-87
2023/05/07 12:22:39;;;;;;;13.10;10.32;;;;;;;;;;5011275;28;20511;-85
2023/05/07 12:25:05;;;;;;;13.50;11.27;;;;;;;;;;5005267;28;20033;-83
2023/05/07 12:27:31;;;;;;;13.57;11.00;;;;;;;;;;4993111;28;20064;-84
2023/05/07 12:29:58;;;;;;;14.48;10.95;;;;;;;;;;4992161;28;20029;-83
2023/05/07 12:32:24;;;;;;;12.55;11.25;;;;;;;;;;5011623;28;20025;-86
2023/05/07 12:34:51;;;;;;;11.75;10.55;;;;;;;;;;4992690;28;20045;-85
2023/05/07 12:37:17;;;;;;;13.52;10.82;;;;;;;;;;5004230;28;20030;-84
2023/05/07 12:39:50;;;;;;;14.70;11.48;;;;;;;;;;4986428;28;20057;-84
2023/05/07 12:42:17;;;;;;;12.35;10.88;;;;;;;;;;4998620;28;20041;-86
2023/05/07 12:44:45;;;;;;;12.40;11.13;;;;;;;;;;5005443;28;20396;-84
2023/05/07 12:47:12;;;;;;;13.32;11.13;;;;;;;;;;5007080;28;20056;-86
2023/05/07 12:49:39;;;;;;;17.40;12.50;;;;;;;;;;5005702;28;20132;-86
2023/05/07 12:52:06;;;;;;;12.93;10.60;;;;;;;;;;5003665;28;20056;-83
2023/05/07 12:54:37;;;;;;;11.32;10.15;;;;;;;;;;4998449;28;20135;-85
2023/05/07 12:57:05;;;;;;;13.07;10.30;;;;;;;;;;5002998;28;20040;-84
2023/05/07 12:59:40;;;;;;;13.20;11.13;;;;;;;;;;5000740;28;20106;-83
2023/05/07 13:02:06;;;;;;;11.43;9.82;;;;;;;;;;5003865;28;20757;-81
2023/05/07 13:04:33;;;;;;;12.43;10.48;;;;;;;;;;5001352;28;20058;-87
2023/05/07 13:06:59;;;;;;;13.55;10.48;;;;;;;;;;4999212;28;20503;-85
2023/05/07 13:09:25;;;;;;;11.75;10.55;;;;;;;;;;5001490;28;20479;-85
2023/05/07 13:11:51;;;;;;;12.40;10.30;;;;;;;;;;5000580;28;20426;-83
2023/05/07 13:14:20;;;;;;;12.18;10.10;;;;;;;;;;4985205;28;20549;-84
2023/05/07 13:16:46;;;;;;;12.05;9.68;;;;;;;;;;5005461;28;20033;-85
2023/05/07 13:19:12;;;;;;;19.48;15.38;;;;;;;;;;4979573;28;20511;-83
2023/05/07 13:21:38;;;;;;;14.07;11.45;;;;;;;;;;5001999;28;20049;-85
2023/05/07 13:24:04;;;;;;;13.00;10.90;;;;;;;;;;5009381;28;20455;-86
2023/05/07 13:26:32;;;;;;;11.02;9.77;;;;;;;;;;4985237;28;20097;-87
2023/05/07 13:28:58;;;;;;;11.07;9.57;;;;;;;;;;4997711;28;20454;-81
2023/05/07 13:31:24;;;;;;;10.82;9.73;;;;;;;;;;4998592;28;20041;-82
2023/05/07 13:33:52;;;;;;;11.02;9.93;;;;;;;;;;4983407;28;20034;-82
2023/05/07 13:36:18;;;;;;;13.38;9.52;;;;;;;;;;4997075;28;20286;-84
2023/05/07 13:38:44;;;;;;;12.25;9.98;;;;;;;;;;4997464;28;20081;-86
2023/05/07 13:41:10;;;;;;;10.75;9.65;;;;;;;;;;5001707;28;20447;-83
2023/05/07 13:43:36;;;;;;;10.98;9.75;;;;;;;;;;4998091;28;20094;-81
2023/05/07 13:48:38;;;;;;;11.65;9.13;;;;;;;;;;5039914;23;20575;-79
2023/05/07 13:51:04;;;;;;;12.20;10.85;;;;;;;;;;4967015;28;20065;-85
2023/05/07 13:53:30;;;;;;;10.80;9.32;;;;;;;;;;4970047;28;20412;-84
2023/05/07 13:55:56;;;;;;;12.00;10.23;;;;;;;;;;4963796;28;20050;-82
2023/05/07 13:58:22;;;;;;;13.57;10.63;;;;;;;;;;4968496;28;20034;-85
2023/05/07 14:00:48;;;;;;;15.35;11.07;;;;;;;;;;4971997;28;20038;-85
2023/05/07 14:03:14;;;;;;;17.65;12.18;;;;;;;;;;4967827;28;20035;-85
2023/05/07 14:05:41;;;;;;;24.98;16.60;;;;;;;;;;4974224;28;20037;-85
2023/05/07 14:08:07;;;;;;;13.15;11.30;;;;;;;;;;4949935;28;20034;-84
2023/05/07 14:10:34;;;;;;;14.13;9.77;;;;;;;;;;4941199;28;20480;-84
2023/05/07 14:13:00;;;;;;;12.40;10.13;;;;;;;;;;4973805;28;20023;-81
2023/05/07 14:15:26;;;;;;;11.65;10.23;;;;;;;;;;4972050;28;20041;-80
2023/05/07 14:17:52;;;;;;;13.55;10.60;;;;;;;;;;4961394;28;20130;-79